createdAt,value
2017-07-29T15:11:28.253Z,97078.58
2017-07-29T15:20:04.320Z,97086.75
2017-07-29T15:24:51.009Z,97074.56
2017-07-29T15:29:38.011Z,97070.77
2017-07-29T15:34:24.738Z,97072.45
2017-07-29T15:39:11.456Z,97067.74
2017-07-29T15:43:58.098Z,97066.53
2017-07-29T15:48:44.718Z,97058.47
2017-07-29T15:53:31.352Z,97057.08
2017-07-29T15:58:19.075Z,97058.91
2017-07-29T16:03:05.692Z,97044.30
2017-07-29T16:07:52.326Z,97043.77
2017-07-29T16:12:38.953Z,97037.58
2017-07-29T16:17:26.323Z,97032.96
2017-07-29T16:22:12.966Z,97032.47
2017-07-29T16:26:59.572Z,97027.39
2017-07-29T16:31:46.201Z,97024.95
2017-07-29T16:36:32.818Z,97026.98
2017-07-29T16:41:19.483Z,97030.31
2017-07-29T16:46:06.236Z,97032.95
2017-07-29T16:50:52.959Z,97023.63
2017-07-29T16:55:39.754Z,97015.02
2017-07-29T17:00:26.858Z,97023.64
2017-07-29T17:05:13.483Z,97018.12
2017-07-29T17:10:00.123Z,97018.16
2017-07-29T17:14:46.786Z,97019.75
2017-07-29T17:19:33.441Z,97023.83
2017-07-29T17:24:20.078Z,97025.20
2017-07-29T17:29:07.009Z,97024.86
2017-07-29T17:33:53.624Z,97018.95
2017-07-29T17:38:40.272Z,97015.75
2017-07-29T17:43:27.714Z,97009.34
2017-07-29T17:48:15.105Z,97009.39
2017-07-29T17:53:01.808Z,97005.41
2017-07-29T17:57:48.485Z,97001.70
2017-07-29T18:02:35.988Z,97009.75
2017-07-29T18:07:22.656Z,97010.22
2017-07-29T18:12:09.301Z,97007.55
2017-07-29T18:16:55.932Z,97000.98
2017-07-29T18:21:43.080Z,97004.38
2017-07-29T18:26:29.744Z,97006.70
2017-07-29T18:31:17.139Z,96996.13
2017-07-29T18:36:03.765Z,96990.66
2017-07-29T18:40:50.507Z,96990.03
2017-07-29T18:45:37.188Z,96998.03
2017-07-29T18:50:23.885Z,97003.20
2017-07-29T18:55:10.921Z,96996.11
2017-07-29T18:59:57.567Z,97007.09
2017-07-29T19:04:44.229Z,97000.41
2017-07-29T19:09:31.638Z,97001.27
2017-07-29T19:14:18.253Z,97006.36
2017-07-29T19:19:04.911Z,97008.17
2017-07-29T19:23:52.644Z,97006.74
2017-07-29T19:28:39.234Z,97001.53
2017-07-29T19:33:25.887Z,97001.27
2017-07-29T19:38:13.267Z,97003.48
2017-07-29T19:43:07.033Z,97004.45
2017-07-29T19:47:53.666Z,97005.63
2017-07-29T19:52:40.310Z,97011.63
2017-07-29T19:57:26.983Z,97016.59
2017-07-29T20:02:13.659Z,97019.70
2017-07-29T20:07:00.306Z,97017.56
2017-07-29T20:11:46.949Z,97017.23
2017-07-29T20:16:33.731Z,97019.56
2017-07-29T20:21:20.357Z,97016.39
2017-07-29T20:26:07.072Z,97011.38
2017-07-29T20:30:54.015Z,97013.29
2017-07-29T20:35:40.870Z,97000.61
2017-07-29T20:40:29.234Z,96999.70
2017-07-29T20:45:16.025Z,96989.42
2017-07-29T20:50:02.715Z,96990.01
2017-07-29T20:54:49.422Z,96993.21
2017-07-29T20:59:36.073Z,96998.39
2017-07-29T21:04:23.512Z,96993.55
2017-07-29T21:09:10.143Z,97002.66
2017-07-29T21:13:56.956Z,97003.50
2017-07-29T21:18:43.613Z,97004.18
2017-07-29T21:23:31.075Z,97010.20
2017-07-29T21:28:17.839Z,97011.77
2017-07-29T21:33:04.629Z,97020.64
2017-07-29T21:37:51.562Z,97018.98
2017-07-29T21:42:38.198Z,97021.89
2017-07-29T21:47:24.932Z,97019.19
2017-07-29T21:52:11.877Z,97018.19
2017-07-29T21:56:58.485Z,97000.94
2017-07-29T22:01:45.226Z,96997.32
2017-07-29T22:06:31.914Z,96994.73
2017-07-29T22:11:18.569Z,96972.84
2017-07-29T22:16:05.481Z,96977.56
2017-07-29T22:20:52.220Z,96974.13
2017-07-29T22:25:39.018Z,96943.88
2017-07-29T22:30:25.615Z,96926.75
2017-07-29T22:35:12.227Z,96926.47
2017-07-29T22:39:59.199Z,96952.81
2017-07-29T22:44:46.013Z,96961.33
2017-07-29T22:49:32.650Z,96976.80
2017-07-29T22:54:19.423Z,96962.70
2017-07-29T22:59:06.115Z,96969.56
2017-07-29T23:03:53.514Z,96972.45
2017-07-29T23:08:40.451Z,96955.73
2017-07-29T23:13:27.160Z,96951.78
2017-07-29T23:18:13.806Z,96977.12
2017-07-29T23:23:01.256Z,96977.84
2017-07-29T23:27:48.629Z,96979.58
2017-07-29T23:32:35.278Z,96976.47
2017-07-29T23:37:21.908Z,96975.48
2017-07-29T23:42:08.524Z,96971.41
2017-07-29T23:46:55.449Z,96966.05
2017-07-29T23:51:42.286Z,96961.66
2017-07-29T23:56:28.896Z,96964.44
